Ana Sayfa
METAR-TAF:

METAR-TAF

Havaalanları :

Mullan Pass Vor, Idaho, Amerika Birleşik Devletleri

Enlem: 47-27-15N, Boylam: 115-40-11W, yükseklik: 1829 m

Güncel hava durumu gözlemi

Rapor saat 14:53 UTC de 20 dakika önce yapıldı.
Rüzgar değişken yönden 3 kt
Sıcaklık -7°C
Nem 86%
Basınç 1018 hPa
Görüş mesafesi: 0.8 km
hafif kar, Donan sis

METAR: KMLP 241453Z AUTO VRB03KT 1/2SM -SN FZFG VV003 M07/M09 A3007 RMK AO2 SLP238 P0007 60018 T10721089 51013

Saat: 07:13 (15:13 UTC)


TAF: eksik

4.000'den fazla havaalanı için hava durumu gözlemleri ve tahminleri (METAR ve TAF raporları).

Kullanılabilir istasyonlar harita üzerinde sarı ve kırmızı noktalarla gösterilir.

İstasyonun adını görmek için fareyi noktanın üzerinde gezdirin.

Sonrasında hava gözlem ve tahminlerini görmek için tıklayın.

Haritayı değiştirmek için: yaklaştırmak için siyah artı işaretli yeşil düğmeye ve uzaklaştırmak için de eksi işaretli düğmeye hızla tıklayın; bitişik haritalar için yeşil okları kullanın.


METAR-TAF: